• Join FlightAware (Why Join?)
  • Login
  • US Flag 
Gobble Gobble! 
07:11AM EST


 

Airport Tracker/Info


-or-


 

Live Flight TrackerFlight Track Log ✈ N789EX ✈ 15-Mar-2014 ✈ KBFI - KBFI

Flight Track Log - Related Links

Times and Time Zones

All times are in EDT time to prevent confusion due to time zone crossing. See the N789EX flight status page for this flight to view local times or setup timezone preferences in your user account.

Time Position Orientation Groundspeed Altitude Reporting Facility
EDT Latitude Longitude Course Direction KTS MPH feet Rate Location/Type
04:45PM 47.5031 -122.2794 145° Southeast 184 212 1,300  Level Seattle Center
04:45PM 47.4956 -122.2717 145° Southeast 187 215 1,600 2,220 Climbing Seattle Center
04:51PM 47.3777 -122.5340 251° West 235 270 14,000 2,160 Climbing FlightAware ADS-B
04:51PM 47.3676 -122.5750 250° West 240 276 14,800 1,740 Climbing FlightAware ADS-B
04:51PM 47.3622 -122.5963 249° West 240 276 15,200 1,740 Climbing FlightAware ADS-B (CYWH)
04:51PM 47.3571 -122.6160 249° West 241 277 15,600 1,860 Climbing FlightAware ADS-B
04:52PM 47.3497 -122.6444 249° West 242 278 16,200 1,740 Climbing FlightAware ADS-B (CYWH)
04:52PM 47.3474 -122.6530 249° West 242 278 16,300 1,620 Climbing FlightAware ADS-B
04:52PM 47.3360 -122.6960 249° West 246 283 17,100 1,740 Climbing FlightAware ADS-B
04:52PM 47.3339 -122.7044 249° West 248 285 17,300 1,500 Climbing FlightAware ADS-B (CYWH)
04:53PM 47.3234 -122.7450 249° West 252 290 17,900 1,500 Climbing FlightAware ADS-B
04:53PM 47.3193 -122.7604 249° West 254 292 18,300 1,200 Climbing FlightAware ADS-B (CYWH)
04:53PM 47.3086 -122.8010 249° West 260 299 18,600 720 Climbing FlightAware ADS-B
04:54PM 47.3037 -122.8202 249° West 270 311 18,700 720 Climbing FlightAware ADS-B (CYWH)
04:54PM 47.2950 -122.8540 249° West 281 323 19,000 900 Climbing FlightAware ADS-B
04:54PM 47.2856 -122.8893 249° West 293 337 19,300 1,200 Climbing FlightAware ADS-B (CYWH)
04:54PM 47.2803 -122.9100 249° West 298 343 19,600 1,020 Climbing FlightAware ADS-B
04:55PM 47.2650 -122.9690 249° West 314 361 20,000 720 Climbing FlightAware ADS-B
04:55PM 47.2647 -122.9698 249° West 316 364 20,000 900 Level FlightAware ADS-B (CYWH)
04:55PM 47.2479 -123.0330 249° West 334 384 20,500 900 Climbing FlightAware ADS-B
04:56PM 47.2435 -123.0500 249° West 339 390 20,600 840 Climbing FlightAware ADS-B (CYWH)
04:56PM 47.2324 -123.0920 249° West 349 402 20,900 720 Climbing FlightAware ADS-B
04:56PM 47.2217 -123.1324 249° West 362 417 21,100 600 Climbing FlightAware ADS-B (CYWH)
04:56PM 47.2142 -123.1610 249° West 366 421 21,200 960 Climbing FlightAware ADS-B
04:57PM 47.2149 -123.1585 249° West 376 433 21,600 1,200 Climbing FlightAware ADS-B (CYWH)
04:57PM 47.1953 -123.2320 249° West 377 434 21,800 1,560 Climbing FlightAware ADS-B
04:57PM 47.1819 -123.2826 249° West 379 436 22,400 1,800 Climbing FlightAware ADS-B (CYWH)
04:57PM 47.1763 -123.3040 249° West 379 436 22,700 1,920 Climbing FlightAware ADS-B
04:58PM 47.1600 -123.3649 249° West 379 436 23,500 1,920 Climbing FlightAware ADS-B (CYVR)
04:58PM 47.1567 -123.3770 249° West 379 436 23,700 1,500 Climbing FlightAware ADS-B
04:58PM 47.1376 -123.4489 249° West 381 438 24,400 1,500 Climbing FlightAware ADS-B (CYWH)
04:58PM 47.1372 -123.4500 249° West 381 438 24,500 1,500 Climbing FlightAware ADS-B
04:59PM 47.1178 -123.5220 248° West 383 441 25,200 1,440 Climbing FlightAware ADS-B
04:59PM 47.1161 -123.5287 248° West 383 441 25,300 1,500 Climbing FlightAware ADS-B (CYVR)
04:59PM 47.1100 -123.5514 249° West 381 438 25,500 1,080 Climbing FlightAware ADS-B (CYWH)
04:59PM 47.0980 -123.5960 248° West 387 445 25,800 1,260 Climbing FlightAware ADS-B
05:00PM 47.0885 -123.6312 248° West 388 447 26,200 1,260 Climbing FlightAware ADS-B (CYVR)
05:00PM 47.0768 -123.6740 248° West 389 448 26,500 1,020 Climbing FlightAware ADS-B
05:00PM 47.0661 -123.7141 248° West 392 451 26,800 1,200 Climbing FlightAware ADS-B (CYWH)
05:00PM 47.0567 -123.7490 248° West 392 451 27,100 1,500 Climbing FlightAware ADS-B
05:01PM 47.0488 -123.7777 248° West 392 451 27,600 1,320 Climbing FlightAware ADS-B (CYWH)
05:01PM 47.0363 -123.8240 248° West 392 451 27,800 1,500 Climbing FlightAware ADS-B
05:01PM 47.0291 -123.8500 248° West 387 445 28,500 2,160 Climbing FlightAware ADS-B (CYVR)
05:02PM 47.0056 -123.9360 248° West 390 449 29,500 2,100 Climbing FlightAware ADS-B
05:02PM 47.0012 -123.9523 248° West 375 432 29,800 1,320 Climbing FlightAware ADS-B (CYVR)
05:02PM 46.9860 -124.0080 248° West 375 432 30,200 1,080 Climbing FlightAware ADS-B
05:03PM 46.9664 -124.0790 248° West 375 432 30,700 960 Climbing FlightAware ADS-B
05:03PM 46.9624 -124.0937 248° West 375 432 30,800 1,200 Climbing FlightAware ADS-B
05:03PM 46.9566 -124.1150 249° West 375 432 31,000 1,080 Climbing FlightAware ADS-B
05:03PM 46.9520 -124.1340 252° West 375 432 31,100 1,080 Climbing FlightAware ADS-B
05:03PM 46.9491 -124.1520 260° West 373 429 31,300 1,500 Climbing FlightAware ADS-B
05:03PM 46.9483 -124.1640 266° West 374 430 31,400 840 Climbing FlightAware ADS-B
05:03PM 46.9483 -124.1720 271° West 374 430 31,400 600 Level FlightAware ADS-B
05:04PM 46.9500 -124.1890 280° West 377 434 31,500 720 Climbing FlightAware ADS-B
05:04PM 46.9503 -124.1903 283° West 378 435 31,500 1,680 Level FlightAware ADS-B
05:04PM 46.9539 -124.2060 291° West 382 440 31,700 1,260 Climbing FlightAware ADS-B
05:04PM 46.9663 -124.2330 314° West 399 459 31,900 1,140 Climbing FlightAware ADS-B
05:04PM 46.9785 -124.2490 318° Northwest 403 464 32,100 1,020 Climbing FlightAware ADS-B
05:04PM 46.9915 -124.2620 327° Northwest 414 476 32,200 840 Climbing FlightAware ADS-B
05:04PM 46.9967 -124.2666 328° Northwest 415 478 32,300 1,200 Climbing FlightAware ADS-B
05:05PM 47.0408 -124.3060 329° Northwest 412 474 32,800 1,200 Climbing FlightAware ADS-B
05:05PM 47.0598 -124.3232 328° Northwest 408 470 33,100 960 Climbing FlightAware ADS-B
05:05PM 47.0866 -124.3523 313° West 387 445 33,300 600 Climbing FlightAware ADS-B
05:05PM 47.1006 -124.3821 299° West 375 432 33,400 480 Climbing FlightAware ADS-B (CYWH)
05:06PM 47.1047 -124.4020 283° West 365 420 33,500 540 Climbing FlightAware ADS-B
05:06PM 47.1053 -124.4090 278° West 363 418 33,500  Level FlightAware ADS-B
05:06PM 47.1027 -124.4470 258° West 362 417 33,500  Level FlightAware ADS-B
05:06PM 47.1019 -124.4514 255° West 364 419 33,500 180 Level FlightAware ADS-B
05:06PM 47.0886 -124.5190 254° West 369 425 33,600 420 Climbing FlightAware ADS-B
05:07PM 47.0827 -124.5489 254° West 369 425 33,800 780 Climbing FlightAware ADS-B
05:07PM 47.0750 -124.5890 255° West 367 422 34,000 240 Climbing FlightAware ADS-B
05:07PM 47.0610 -124.6640 255° West 374 430 34,000  Level FlightAware ADS-B
05:08PM 47.0383 -124.7870 255° West 374 430 34,000  Level FlightAware ADS-B
05:09PM 47.0253 -124.8589 255° West 360 414 34,000  Level FlightAware ADS-B (CYVR)
05:09PM 47.0199 -124.8910 258° West 359 413 34,000 -300 Level FlightAware ADS-B
05:09PM 47.0188 -124.9090 268° West 360 414 33,900 -1,500 Descending FlightAware ADS-B
05:09PM 47.0200 -124.9220 279° West 363 418 33,700 -2,700 Descending FlightAware ADS-B
05:09PM 47.0223 -124.9310 289° West 370 426 33,500 -2,580 Descending FlightAware ADS-B
05:09PM 47.0249 -124.9390 301° West 379 436 33,400 -3,240 Descending FlightAware ADS-B
05:09PM 47.0429 -124.9560 311° West 388 447 32,700 -3,780 Descending FlightAware ADS-B
05:09PM 47.0506 -124.9590 346° North 436 502 32,400 -3,780 Descending FlightAware ADS-B
05:10PM 47.0580 -124.9610 349° North 449 517 32,200 480 Descending FlightAware ADS-B
05:10PM 47.1198 -124.9760 351° North 447 514 32,700 1,140 Climbing FlightAware ADS-B
05:10PM 47.1316 -124.9790 352° North 446 513 32,900 1,200 Climbing FlightAware ADS-B (CYVR)
05:11PM 47.1813 -124.9900 352° North 442 509 33,300 600 Climbing FlightAware ADS-B
05:11PM 47.2427 -125.0030 351° North 443 510 33,500 360 Climbing FlightAware ADS-B
05:12PM 47.3034 -125.0170 351° North 444 511 33,700 480 Climbing FlightAware ADS-B
05:12PM 47.3668 -125.0310 351° North 446 513 34,000 420 Climbing FlightAware ADS-B
05:13PM 47.4164 -125.0430 351° North 446 513 34,100 180 Climbing FlightAware ADS-B (CYVR)
05:13PM 47.4278 -125.0460 351° North 446 513 34,100 -240 Level FlightAware ADS-B
05:13PM 47.4763 -125.0575 350° North 447 514 34,000 -240 Descending FlightAware ADS-B (CYVR)
05:13PM 47.4896 -125.0610 350° North 446 513 34,000 180 Level FlightAware ADS-B
05:14PM 47.5385 -125.0746 349° North 441 507 34,100 180 Climbing FlightAware ADS-B (CYVR)
05:14PM 47.5501 -125.0780 349° North 440 506 34,100 -240 Level FlightAware ADS-B
05:14PM 47.6103 -125.0950 349° North 442 509 34,000 -180 Descending FlightAware ADS-B
05:14PM 47.6155 -125.0971 348° North 442 509 34,000  Level FlightAware ADS-B (CYVR)
05:14PM 47.6335 -125.1030 347° North 441 507 34,000 -420 Level FlightAware ADS-B
05:14PM 47.6511 -125.1110 340° North 431 496 33,900 -1,200 Descending FlightAware ADS-B
05:15PM 47.6614 -125.1190 331° Northwest 419 482 33,700 -2,040 Descending FlightAware ADS-B
05:15PM 47.6696 -125.1290 319° Northwest 403 464 33,500 -2,100 Descending FlightAware ADS-B
05:15PM 47.6788 -125.1605 271° West 362 417 33,000 -2,640 Descending FlightAware ADS-B (CYVR)
05:15PM 47.6786 -125.1660 269° West 362 417 32,800 360 Descending FlightAware ADS-B
05:15PM 47.6718 -125.2420 263° West 357 411 33,200 480 Climbing FlightAware ADS-B
05:16PM 47.6647 -125.3150 261° West 357 411 33,300 360 Climbing FlightAware ADS-B
05:16PM 47.6571 -125.3900 262° West 355 409 33,600 360 Climbing FlightAware ADS-B
05:17PM 47.6500 -125.4590 261° West 358 412 33,700 360 Climbing FlightAware ADS-B
05:17PM 47.6417 -125.5310 260° West 357 411 34,000 1,080 Climbing FlightAware ADS-B
05:18PM 47.6334 -125.6040 260° West 345 397 34,800 780 Climbing FlightAware ADS-B
05:18PM 47.6250 -125.6750 260° West 346 398 34,800 180 Level FlightAware ADS-B
05:19PM 47.6160 -125.7460 259° West 347 399 35,000 240 Climbing FlightAware ADS-B
05:19PM 47.6114 -125.7824 259° West 348 400 35,000  Level FlightAware ADS-B (CYVR)
05:20PM 47.6056 -125.8270 259° West 349 402 35,000  Level FlightAware ADS-B
05:20PM 47.5955 -125.8990 258° West 357 411 35,000 60 Level FlightAware ADS-B
05:21PM 47.5849 -125.9730 258° West 359 413 35,100 180 Climbing FlightAware ADS-B
05:21PM 47.5734 -126.0470 257° West 364 419 35,200 -120 Climbing FlightAware ADS-B
05:22PM 47.5606 -126.1220 255° West 368 423 35,000 -360 Descending FlightAware ADS-B
05:22PM 47.5580 -126.1370 255° West 368 423 35,000 -180 Level FlightAware ADS-B (CYVR)
05:22PM 47.5426 -126.2180 253° West 367 422 34,900 -120 Descending FlightAware ADS-B
05:23PM 47.5335 -126.2570 249° West 369 425 34,900  Level FlightAware ADS-B
05:24PM 47.4117 -126.2890 241° Southwest 370 426 34,900 60 Level FlightAware ADS-B
05:24PM 47.3609 -126.2800 173° South 427 491 35,000 120 Climbing FlightAware ADS-B
05:25PM 47.2226 -126.2570 174° South 433 498 35,100 -120 Climbing FlightAware ADS-B
05:27PM 47.0067 -126.2290 175° South 457 526 34,800 -180 Descending FlightAware ADS-B
05:28PM 46.9443 -126.2190 169° South 470 541 34,700 -780 Descending FlightAware ADS-B
05:28PM 46.9100 -126.1860 129° Southeast 534 615 34,200 -1,260 Descending FlightAware ADS-B
05:28PM 46.9009 -126.1670 125° Southeast 540 621 34,200 420 Level FlightAware ADS-B
05:28PM 46.8560 -126.0720 124° Southeast 533 613 34,500 600 Climbing FlightAware ADS-B
05:29PM 46.8327 -126.0210 122° Southeast 531 611 34,700 660 Climbing FlightAware ADS-B
05:29PM 46.8215 -125.9920 116° Southeast 539 620 34,800 420 Climbing FlightAware ADS-B
05:29PM 46.8182 -125.9810 114° Southeast 541 623 34,800  Level FlightAware ADS-B
05:29PM 46.8123 -125.9580 109° East 547 629 34,800 300 Level FlightAware ADS-B
05:29PM 46.8058 -125.9160 100° East 554 638 34,900 300 Climbing FlightAware ADS-B
05:29PM 46.8039 -125.8910 94° East 558 642 34,900  Level FlightAware ADS-B
05:29PM 46.8038 -125.8660 89° East 560 644 34,900 300 Level FlightAware ADS-B
05:30PM 46.8076 -125.8200 81° East 561 646 35,000  Climbing FlightAware ADS-B
05:30PM 46.8192 -125.7590 71° East 561 646 34,900 -180 Descending FlightAware ADS-B
05:30PM 46.8463 -125.6520 70° East 563 648 34,900  Level FlightAware ADS-B
05:31PM 46.8730 -125.5450 70° East 566 651 34,900  Level FlightAware ADS-B
05:32PM 46.9022 -125.4310 69° East 573 659 34,900 60 Level FlightAware ADS-B
05:32PM 46.9303 -125.3220 69° East 579 666 35,000 60 Climbing FlightAware ADS-B
05:33PM 46.9596 -125.2090 69° East 586 674 35,000 -120 Level FlightAware ADS-B
05:33PM 46.9900 -125.0960 69° East 587 676 34,900 -180 Descending FlightAware ADS-B
05:33PM 46.8100 -125.9462 105° East 550 633 34,900  Level FlightAware ADS-B (CYWH)
05:33PM 47.0111 -125.0190 67° East 584 672 34,900 -480 Level FlightAware ADS-B
05:34PM 47.0284 -124.9720 57° Northeast 577 664 34,700 -900 Descending FlightAware ADS-B
05:34PM 47.0423 -124.9490 45° Northeast 563 648 34,600 -2,100 Descending FlightAware ADS-B
05:34PM 47.0674 -124.9300 25° Northeast 533 613 34,000 -2,280 Descending FlightAware ADS-B
05:34PM 47.0764 -124.9280 North 495 570 34,000 840 Level FlightAware ADS-B
05:34PM 46.8100 -125.9462 North 478 550 34,400 960 Climbing FlightAware ADS-B (CYWH)
05:35PM 47.1430 -124.9230 North 477 549 34,500 960 Climbing FlightAware ADS-B
05:35PM 47.2115 -124.9180 North 470 541 35,000 480 Climbing FlightAware ADS-B
05:36PM 47.2771 -124.9150 North 474 545 35,000 -540 Level FlightAware ADS-B
05:36PM 47.3459 -124.9140 North 490 564 34,500 -1,080 Descending FlightAware ADS-B
05:36PM 47.3550 -124.9140 360° North 493 567 34,400 -780 Descending FlightAware ADS-B
05:37PM 47.4212 -124.9140 North 507 583 34,100 -720 Descending FlightAware ADS-B
05:37PM 47.4727 -124.9140 360° North 515 593 33,800 -720 Descending FlightAware ADS-B
05:37PM 46.8100 -125.9462 360° North 516 594 33,700 -840 Descending FlightAware ADS-B (CYWH)
05:37PM 47.5462 -124.9150 360° North 520 598 33,400 -1,140 Descending FlightAware ADS-B
05:38PM 47.5817 -124.9170 356° North 517 595 33,100 -1,080 Descending FlightAware ADS-B
05:38PM 46.8100 -125.9462 355° North 517 595 33,100 -480 Level FlightAware ADS-B (CYWH)
05:38PM 47.6117 -124.9230 351° North 508 585 33,000 -600 Descending FlightAware ADS-B
05:38PM 47.6368 -124.9300 346° North 500 575 32,900 -600 Descending FlightAware ADS-B
05:38PM 47.6578 -124.9400 341° North 493 567 32,800 -600 Descending FlightAware ADS-B
05:38PM 46.8100 -125.9462 340° North 490 564 32,800 -720 Level FlightAware ADS-B (CYWH)
05:38PM 47.6757 -124.9510 335° Northwest 483 556 32,700 -480 Descending FlightAware ADS-B
05:39PM 47.7363 -124.9950 333° Northwest 482 555 32,500 -420 Descending FlightAware ADS-B
05:39PM 47.8012 -125.0440 333° Northwest 486 559 32,300 -420 Descending FlightAware ADS-B
05:40PM 47.8584 -125.0860 334° Northwest 488 562 32,100 -480 Descending FlightAware ADS-B
05:41PM 47.9439 -125.1480 334° Northwest 488 562 31,800 -420 Descending FlightAware ADS-B
05:41PM 47.9759 -125.1720 331° Northwest 487 560 31,700 -840 Descending FlightAware ADS-B
05:41PM 47.9902 -125.1860 323° Northwest 476 548 31,500 -1,440 Descending FlightAware ADS-B
05:41PM 47.9978 -125.1970 315° West 465 535 31,400 -2,520 Descending FlightAware ADS-B
05:41PM 48.0051 -125.2150 306° West 454 522 31,000 -2,220 Descending FlightAware ADS-B
05:41PM 48.0075 -125.2260 289° West 433 498 31,000 -1,380 Level FlightAware ADS-B
05:41PM 48.0083 -125.2390 272° West 419 482 30,800 180 Descending FlightAware ADS-B
05:42PM 47.9982 -125.3690 264° West 412 474 31,200 660 Climbing FlightAware ADS-B
05:43PM 47.9900 -125.4550 262° West 407 468 31,700 960 Climbing FlightAware ADS-B
05:43PM 47.9882 -125.4730 262° West 406 467 31,800 360 Climbing FlightAware ADS-B (CYVR)
05:44PM 47.9621 -125.7293 261° West 411 473 32,300 -60 Climbing FlightAware ADS-B (CYVR)
05:46PM 47.9389 -125.9367 260° West 415 478 31,700 -480 Descending FlightAware ADS-B (CYVR)
05:46PM 47.9309 -126.0010 256° West 415 478 31,600 -1,320 Descending FlightAware ADS-B
05:47PM 47.8698 -126.0550 183° South 473 544 30,400 -540 Descending FlightAware ADS-B
05:47PM 47.7965 -126.0600 182° South 464 534 31,000 900 Climbing FlightAware ADS-B
05:48PM 47.7312 -126.0630 182° South 463 533 31,400 720 Climbing FlightAware ADS-B
05:48PM 47.6658 -126.0670 182° South 463 533 31,800 660 Climbing FlightAware ADS-B
05:49PM 47.6011 -126.0710 182° South 463 533 32,100 180 Climbing FlightAware ADS-B
05:49PM 47.5357 -126.0750 183° South 465 535 32,000 -360 Descending FlightAware ADS-B
05:50PM 47.4792 -126.0660 168° South 483 556 31,800 -720 Descending FlightAware ADS-B
05:50PM 47.4439 -126.0520 162° South 493 567 31,500 -1,020 Descending FlightAware ADS-B (CYVR)
05:50PM 47.4119 -126.0300 151° Southeast 510 587 31,300 -780 Descending FlightAware ADS-B
05:51PM 47.3664 -125.9760 141° Southeast 522 601 31,000 -660 Descending FlightAware ADS-B
05:51PM 47.3582 -125.9610 130° Southeast 536 617 31,000 -240 Level FlightAware ADS-B
05:51PM 47.3290 -125.8850 111° Southeast 562 647 30,900 -600 Descending FlightAware ADS-B
05:51PM 47.3055 -125.7740 107° East 573 659 30,500 -1,020 Descending FlightAware ADS-B
05:52PM 47.2817 -125.6600 107° East 575 662 29,900 -1,200 Descending FlightAware ADS-B
05:53PM 47.2575 -125.5450 107° East 570 656 29,300 -900 Descending FlightAware ADS-B
05:53PM 47.2339 -125.4350 107° East 565 650 29,000 -300 Descending FlightAware ADS-B
05:54PM 47.2099 -125.3240 108° East 560 644 29,000  Level FlightAware ADS-B
05:54PM 47.1860 -125.2140 108° East 560 644 29,000  Level FlightAware ADS-B
05:55PM 47.1619 -125.1040 108° East 558 642 29,000  Level FlightAware ADS-B
05:55PM 47.1379 -124.9960 108° East 558 642 29,000  Level FlightAware ADS-B
05:56PM 47.1136 -124.8860 108° East 558 642 29,000  Level FlightAware ADS-B
05:56PM 47.0887 -124.7750 108° East 561 646 29,000  Level FlightAware ADS-B
05:56PM 47.0805 -124.7381 108° East 561 646 29,000  Level FlightAware ADS-B
05:57PM 47.0643 -124.6660 108° East 561 646 29,000  Level FlightAware ADS-B
05:57PM 47.0487 -124.5967 108° East 561 646 29,000  Level FlightAware ADS-B
05:57PM 47.0400 -124.5580 108° East 561 646 29,000  Level FlightAware ADS-B
05:58PM 47.0156 -124.4500 108° East 561 646 29,000  Level FlightAware ADS-B
05:58PM 46.9909 -124.3410 108° East 560 644 29,000  Level FlightAware ADS-B
05:58PM 46.9831 -124.3068 108° East 560 644 29,000 -720 Level FlightAware ADS-B
05:59PM 46.9698 -124.2490 108° East 546 628 28,700 -2,820 Descending FlightAware ADS-B
05:59PM 46.9607 -124.2010 104° East 541 623 27,700 -4,020 Descending FlightAware ADS-B
05:59PM 46.9575 -124.1800 100° East 538 619 27,100 -3,600 Descending FlightAware ADS-B
05:59PM 46.9538 -124.1490 98° East 536 617 26,800 -3,180 Descending FlightAware ADS-B
05:59PM 46.9505 -124.1020 94° East 526 605 26,200 -2,280 Descending FlightAware ADS-B
05:59PM 46.9496 -124.0520 90° East 519 597 25,800 -1,500 Descending FlightAware ADS-B
06:00PM 46.9499 -124.0320 91° East 519 597 25,700 -1,560 Descending FlightAware ADS-B
06:00PM 46.9521 -123.9460 88° East 521 600 25,000 -1,680 Descending FlightAware ADS-B
06:00PM 46.9528 -123.9175 88° East 519 597 24,700 -1,800 Descending FlightAware ADS-B (CYVR)
06:00PM 46.9545 -123.8400 88° East 514 592 24,100 -1,740 Descending FlightAware ADS-B
06:01PM 46.9553 -123.8035 88° East 508 585 23,800 -1,620 Descending FlightAware ADS-B (CYVR)
06:01PM 46.9568 -123.7360 88° East 501 577 23,300 -1,680 Descending FlightAware ADS-B
06:01PM 46.9577 -123.6923 88° East 494 568 22,700 -1,800 Descending FlightAware ADS-B (CYVR)
06:01PM 46.9589 -123.6350 88° East 491 565 22,400 -1,800 Descending FlightAware ADS-B
06:02PM 46.9608 -123.5360 88° East 484 557 21,600 -1,560 Descending FlightAware ADS-B
06:02PM 46.9608 -123.5377 88° East 483 556 21,600 -1,800 Level FlightAware ADS-B (CYVR)
06:02PM 46.9628 -123.4380 88° East 468 539 20,700 -1,740 Descending FlightAware ADS-B
06:02PM 46.9628 -123.4397 88° East 468 539 20,700 -1,800 Level FlightAware ADS-B (CYVR)
06:03PM 46.9646 -123.3430 88° East 461 531 19,800 -1,860 Descending FlightAware ADS-B
06:03PM 46.9651 -123.3092 89° East 458 527 19,500 -1,800 Descending FlightAware ADS-B (CYVR)
06:03PM 46.9661 -123.2500 89° East 457 526 18,900 -1,800 Descending FlightAware ADS-B
06:04PM 46.9659 -123.2641 89° East 457 526 18,600 -1,800 Descending FlightAware ADS-B (CYVR)
06:04PM 46.9677 -123.1560 89° East 454 522 18,000 -1,740 Descending FlightAware ADS-B
06:04PM 46.9684 -123.1121 88° East 439 505 17,600 -840 Descending FlightAware ADS-B
06:04PM 46.9692 -123.0670 89° East 410 472 17,600 -720 Level FlightAware ADS-B
06:05PM 46.9704 -122.9850 89° East 396 456 17,100 -840 Descending FlightAware ADS-B
06:05PM 46.9711 -122.9510 87° East 394 453 17,000 -720 Descending FlightAware ADS-B
06:05PM 46.9722 -122.9380 81° East 396 456 16,900 -900 Descending FlightAware ADS-B
06:05PM 46.9659 -123.2641 89° East 457 526 16,900  Level FlightAware ADS-B (CYVR)
06:05PM 46.9736 -122.9290 76° East 397 457 16,900 -1,020 Level FlightAware ADS-B
06:05PM 46.9758 -122.9180 71° East 397 457 16,800 -1,200 Descending FlightAware ADS-B
06:06PM 46.9805 -122.9020 64° Northeast 400 460 16,700 -1,440 Descending FlightAware ADS-B
06:06PM 46.9871 -122.8860 56° Northeast 400 460 16,500 -1,500 Descending FlightAware ADS-B
06:06PM 46.9926 -122.8760 50° Northeast 399 459 16,400 -2,040 Descending FlightAware ADS-B
06:06PM 46.9978 -122.8680 46° Northeast 397 457 16,200 -2,040 Descending FlightAware ADS-B
06:06PM 47.0045 -122.8590 41° Northeast 391 450 16,100 -1,500 Descending FlightAware ADS-B
06:06PM 47.0456 -122.8070 41° Northeast 382 440 15,300 -1,620 Descending FlightAware ADS-B
06:07PM 47.0855 -122.7570 41° Northeast 379 436 14,500 -1,620 Descending FlightAware ADS-B
06:07PM 47.1239 -122.7080 41° Northeast 351 404 13,700 -1,920 Descending FlightAware ADS-B
06:08PM 47.1535 -122.6700 41° Northeast 343 395 12,700 -2,220 Descending FlightAware ADS-B (CYVR)
06:08PM 47.1607 -122.6610 41° Northeast 343 395 12,600 -2,400 Descending FlightAware ADS-B
06:08PM 47.1970 -122.6140 41° Northeast 337 388 11,400 -1,920 Descending FlightAware ADS-B
06:09PM 47.2311 -122.5700 41° Northeast 313 360 10,700 -1,140 Descending FlightAware ADS-B
06:09PM 47.2629 -122.5290 41° Northeast 292 336 10,300 -1,080 Descending FlightAware ADS-B
06:10PM 47.2792 -122.5080 41° Northeast 286 329 9,900 -1,140 Descending FlightAware ADS-B
06:10PM 47.2953 -122.4870 41° Northeast 285 328 9,700 -480 Descending FlightAware ADS-B
06:10PM 47.3063 -122.4730 40° Northeast 285 328 9,700  Level FlightAware ADS-B
06:10PM 47.3104 -122.4690 37° Northeast 285 328 9,700  Level FlightAware ADS-B
06:10PM 47.3141 -122.4650 34° Northeast 283 326 9,700  Level FlightAware ADS-B
06:10PM 47.3193 -122.4610 27° Northeast 281 323 9,700  Level FlightAware ADS-B
06:10PM 47.3226 -122.4580 22° Northeast 280 322 9,700  Level FlightAware ADS-B
06:10PM 47.3275 -122.4560 16° North 277 319 9,700  Level FlightAware ADS-B
06:10PM 47.3312 -122.4550 12° North 274 315 9,700  Level FlightAware ADS-B
06:11PM 47.3365 -122.4540 North 272 313 9,700  Level FlightAware ADS-B
06:11PM 47.3437 -122.4520 North 271 312 9,700 -1,200 Level FlightAware ADS-B
06:11PM 47.3625 -122.4490 North 269 310 9,300 -1,440 Descending FlightAware ADS-B
06:11PM 47.3811 -122.4470 North 267 307 9,000 -1,560 Descending FlightAware ADS-B
06:11PM 47.4002 -122.4440 North 267 307 8,500 -2,040 Descending FlightAware ADS-B
06:12PM 47.4214 -122.4410 North 268 308 7,900 -2,100 Descending FlightAware ADS-B
06:12PM 47.4402 -122.4390 North 269 310 7,400 -1,800 Descending FlightAware ADS-B
06:12PM 47.4588 -122.4370 North 267 307 7,000 -1,620 Descending FlightAware ADS-B
06:12PM 47.4771 -122.4350 North 264 304 6,600 -1,800 Descending FlightAware ADS-B
06:13PM 47.4954 -122.4320 North 261 300 6,100 -1,860 Descending FlightAware ADS-B
06:13PM 47.5084 -122.4300 North 260 299 5,800 -1,920 Descending FlightAware ADS-B
06:13PM 47.5141 -122.4300 North 256 295 5,600 -2,280 Descending FlightAware ADS-B
06:13PM 47.5176 -122.4300 355° North 253 291 5,500 -2,040 Descending FlightAware ADS-B
06:13PM 47.5212 -122.4310 351° North 249 287 5,400 -2,040 Descending FlightAware ADS-B
06:13PM 47.5246 -122.4320 347° North 245 282 5,300 -1,740 Descending FlightAware ADS-B
06:13PM 47.5285 -122.4340 343° North 242 278 5,200 -1,920 Descending FlightAware ADS-B
06:13PM 47.5416 -122.4410 339° North 239 275 4,800 -1,920 Descending FlightAware ADS-B
06:14PM 47.5583 -122.4500 338° Northwest 238 274 4,300 -1,740 Descending FlightAware ADS-B
06:14PM 47.5697 -122.4570 337° Northwest 238 274 4,000 -1,200 Descending FlightAware ADS-B
06:14PM 47.5844 -122.4670 336° Northwest 238 274 3,800 -600 Descending FlightAware ADS-B
06:14PM 47.5998 -122.4770 336° Northwest 239 275 3,700 -240 Descending FlightAware ADS-B
06:15PM 47.6113 -122.4840 337° Northwest 239 275 3,700  Level FlightAware ADS-B
06:15PM 47.6250 -122.4930 336° Northwest 240 276 3,700  Level FlightAware ADS-B
06:15PM 47.6407 -122.5030 337° Northwest 241 277 3,700  Level FlightAware ADS-B
06:15PM 47.6572 -122.5140 336° Northwest 241 277 3,700  Level FlightAware ADS-B
06:16PM 47.6731 -122.5240 336° Northwest 242 278 3,700  Level FlightAware ADS-B
06:16PM 47.6905 -122.5410 334° Northwest 240 276 3,700  Level FlightAware ADS-B
06:16PM 47.6959 -122.5480 321° Northwest 228 262 3,700  Level FlightAware ADS-B
06:16PM 47.7081 -122.5630 320° Northwest 224 258 3,700  Level FlightAware ADS-B
06:16PM 47.7200 -122.5770 320° Northwest 224 258 3,700 -240 Level FlightAware ADS-B
06:17PM 47.7360 -122.5910 324° Northwest 229 264 3,600 -600 Descending FlightAware ADS-B
06:17PM 47.7406 -122.5920 352° North 247 284 3,500 -720 Descending FlightAware ADS-B
06:17PM 47.7471 -122.5920 North 251 289 3,500 -720 Level FlightAware ADS-B
06:17PM 47.7513 -122.5910 North 253 291 3,400 -1,200 Descending FlightAware ADS-B
06:17PM 47.7716 -122.5740 32° Northeast 252 290 3,000 -960 Descending FlightAware ADS-B
06:18PM 47.7879 -122.5440 51° Northeast 233 268 2,700 -480 Descending FlightAware ADS-B
06:18PM 47.8007 -122.5200 52° Northeast 233 268 2,700  Level FlightAware ADS-B
06:18PM 47.8107 -122.5020 52° Northeast 229 264 2,700  Level FlightAware ADS-B
06:18PM 47.8177 -122.4880 52° Northeast 223 257 2,700  Level FlightAware ADS-B
06:19PM 47.8293 -122.4670 50° Northeast 226 260 2,700  Level FlightAware ADS-B
06:19PM 47.8619 -122.4530 15° North 227 261 2,700  Level FlightAware ADS-B
06:20PM 47.8769 -122.4730 15° North 227 261 2,700  Level FlightAware ADS-B
06:20PM 47.8779 -122.4780 288° West 176 203 2,700  Level FlightAware ADS-B
06:20PM 47.8782 -122.4860 268° West 163 188 2,700  Level FlightAware ADS-B
06:20PM 47.8770 -122.4920 250° West 153 176 2,700  Level FlightAware ADS-B
06:20PM 47.8729 -122.4990 217° Southwest 143 165 2,700 180 Level FlightAware ADS-B
06:20PM 47.8602 -122.5010 211° Southwest 144 166 2,800  Climbing FlightAware ADS-B
06:21PM 47.8481 -122.4970 170° South 157 181 2,700 -240 Descending FlightAware ADS-B
06:21PM 47.8420 -122.4960 169° South 156 180 2,700  Level FlightAware ADS-B
06:21PM 47.8312 -122.4930 169° South 157 181 2,700  Level FlightAware ADS-B
06:21PM 47.8205 -122.4900 170° South 156 180 2,700  Level FlightAware ADS-B
06:22PM 47.8127 -122.4880 169° South 157 181 2,700  Level FlightAware ADS-B
06:22PM 47.8023 -122.4850 171° South 160 184 2,700 -420 Level FlightAware ADS-B
06:22PM 47.7788 -122.4790 170° South 158 182 2,400 -660 Descending FlightAware ADS-B
06:23PM 47.7674 -122.4760 170° South 158 182 2,200 -240 Descending FlightAware ADS-B
06:25PM 47.6797 -122.4300 150° Southeast 162 186 1,900 -120 Descending FlightAware ADS-B
06:25PM 47.6666 -122.4190 150° Southeast 162 186 1,900  Level FlightAware ADS-B
06:25PM 47.6558 -122.4090 150° Southeast 161 185 1,900  Level FlightAware ADS-B
06:26PM 47.6452 -122.4000 149° Southeast 161 185 1,900  Level FlightAware ADS-B
06:26PM 47.6358 -122.3920 150° Southeast 163 188 1,900 -240 Level FlightAware ADS-B
06:26PM 47.6264 -122.3840 150° Southeast 168 193 1,800 -780 Descending FlightAware ADS-B
06:27PM 47.6086 -122.3690 150° Southeast 172 198 1,400 -960 Descending FlightAware ADS-B
06:27PM 47.5966 -122.3590 150° Southeast 161 185 1,100 -720 Descending FlightAware ADS-B
06:28PM 47.5492 -122.3183 150° Southeast 165 190 300 -660 Descending Seattle Center
06:28PM 47.5428 -122.3133 152° Southeast 192 221 200 11,460 Descending Seattle Center
06:29PM 47.5075 -122.2828 150° Southeast 164 189 12,000 12,600 Climbing Seattle Center